createdAt,value
2017-12-22T00:00:22.306Z,12.10
2017-12-22T00:02:51.173Z,12.77
2017-12-22T00:05:20.057Z,12.87
2017-12-22T00:07:48.909Z,12.87
2017-12-22T00:10:17.965Z,13.57
2017-12-22T00:12:46.824Z,13.37
2017-12-22T00:15:15.664Z,13.70
2017-12-22T00:17:44.645Z,12.07
2017-12-22T00:20:13.492Z,12.10
2017-12-22T00:22:42.347Z,12.90
2017-12-22T00:25:11.219Z,13.03
2017-12-22T00:27:40.307Z,13.07
2017-12-22T00:30:09.198Z,14.10
2017-12-22T00:32:38.096Z,12.53
2017-12-22T00:35:06.952Z,12.33
2017-12-22T00:37:35.809Z,12.17
2017-12-22T00:40:05.573Z,13.10
2017-12-22T00:42:34.423Z,12.90
2017-12-22T00:45:03.306Z,12.67
2017-12-22T00:47:32.191Z,13.80
2017-12-22T00:50:01.073Z,13.83
2017-12-22T00:52:30.847Z,13.87
2017-12-22T00:54:59.709Z,13.30
2017-12-22T00:57:28.561Z,11.30
2017-12-22T00:59:57.397Z,13.33
2017-12-22T01:02:26.280Z,13.70
2017-12-22T01:04:55.147Z,14.57
2017-12-22T01:07:23.981Z,13.80
2017-12-22T01:09:52.869Z,14.60
2017-12-22T01:12:21.851Z,13.17
2017-12-22T01:14:50.692Z,13.63
2017-12-22T01:17:25.488Z,14.07
2017-12-22T01:19:54.328Z,13.17
2017-12-22T01:22:24.208Z,13.63
2017-12-22T01:24:53.078Z,12.93
2017-12-22T01:27:21.906Z,14.00
2017-12-22T01:29:50.749Z,13.03
2017-12-22T01:32:19.617Z,13.50
2017-12-22T01:34:49.298Z,13.37
2017-12-22T01:37:18.136Z,12.67
2017-12-22T01:39:46.997Z,12.73
2017-12-22T01:42:15.954Z,12.70
2017-12-22T01:44:44.800Z,12.43
2017-12-22T01:47:13.682Z,11.97
2017-12-22T01:49:42.528Z,12.47
2017-12-22T01:52:11.374Z,12.43
2017-12-22T01:54:40.288Z,11.60
2017-12-22T01:57:09.144Z,11.70
2017-12-22T01:59:37.988Z,12.37
2017-12-22T02:02:07.899Z,11.90
2017-12-22T02:04:37.452Z,12.30
2017-12-22T02:07:06.360Z,12.13
2017-12-22T02:09:36.014Z,12.63
2017-12-22T02:12:05.414Z,12.10
2017-12-22T02:14:34.884Z,12.40
2017-12-22T02:17:03.766Z,11.20
2017-12-22T02:19:32.648Z,12.27
2017-12-22T02:22:01.502Z,11.67
2017-12-22T02:24:30.386Z,12.03
2017-12-22T02:26:59.736Z,12.13
2017-12-22T02:29:28.612Z,13.13
2017-12-22T02:31:57.484Z,12.23
2017-12-22T02:34:26.364Z,12.60
2017-12-22T02:36:55.208Z,12.97
2017-12-22T02:39:24.069Z,12.90
2017-12-22T02:41:52.939Z,12.90
2017-12-22T02:44:21.779Z,13.47
2017-12-22T02:46:50.650Z,12.80
2017-12-22T02:49:19.488Z,12.67
2017-12-22T02:51:49.057Z,13.00
2017-12-22T02:54:17.942Z,12.67
2017-12-22T02:56:46.790Z,13.80
2017-12-22T02:59:18.264Z,13.67
2017-12-22T03:01:47.116Z,13.30
2017-12-22T03:04:15.956Z,13.37
2017-12-22T03:06:44.884Z,14.37
2017-12-22T03:09:13.720Z,14.43
2017-12-22T03:11:42.581Z,14.20
2017-12-22T03:14:11.428Z,14.97
2017-12-22T03:16:40.292Z,14.07
2017-12-22T03:19:09.140Z,15.53
2017-12-22T03:21:38.040Z,15.40
2017-12-22T03:24:06.905Z,15.33
2017-12-22T03:26:35.786Z,16.17
2017-12-22T03:29:04.696Z,16.43
2017-12-22T03:31:33.580Z,16.47
2017-12-22T03:34:02.436Z,17.60
2017-12-22T03:36:31.340Z,16.80
2017-12-22T03:39:00.180Z,17.30
2017-12-22T03:41:29.036Z,17.53
2017-12-22T03:43:58.680Z,19.17
2017-12-22T03:46:27.536Z,17.70
2017-12-22T03:48:56.384Z,18.77
2017-12-22T03:51:25.275Z,18.53
2017-12-22T03:53:54.122Z,19.00
2017-12-22T03:56:23.022Z,19.47
2017-12-22T03:58:51.927Z,18.77
2017-12-22T04:01:20.768Z,19.87
2017-12-22T04:03:49.604Z,20.60
2017-12-22T04:06:18.508Z,19.13
2017-12-22T04:08:48.429Z,19.57
2017-12-22T04:11:17.277Z,20.77
2017-12-22T04:13:46.188Z,19.53
2017-12-22T04:16:15.032Z,21.23
2017-12-22T04:18:44.186Z,19.60
2017-12-22T04:21:13.048Z,21.13
2017-12-22T04:23:41.906Z,20.10
2017-12-22T04:26:10.738Z,20.33
2017-12-22T04:28:39.602Z,21.17
2017-12-22T04:31:08.444Z,20.37
2017-12-22T04:33:37.318Z,21.10
2017-12-22T04:36:06.193Z,20.17
2017-12-22T04:38:35.040Z,20.63
2017-12-22T04:41:03.898Z,19.90
2017-12-22T04:43:32.765Z,20.17
2017-12-22T04:46:01.609Z,21.33
2017-12-22T04:48:30.446Z,21.10
2017-12-22T04:50:59.850Z,21.23
2017-12-22T04:53:28.692Z,21.60
2017-12-22T04:55:57.548Z,21.83
2017-12-22T04:58:26.419Z,22.53
2017-12-22T05:00:55.288Z,21.77
2017-12-22T05:03:24.122Z,21.17
2017-12-22T05:05:53.004Z,22.23
2017-12-22T05:08:21.840Z,21.83
2017-12-22T05:10:50.684Z,22.27
2017-12-22T05:13:19.554Z,20.57
2017-12-22T05:15:48.398Z,21.17
2017-12-22T05:18:17.250Z,22.40
2017-12-22T05:20:47.048Z,21.80
2017-12-22T05:23:15.900Z,22.53
2017-12-22T05:25:44.732Z,21.10
2017-12-22T05:28:13.620Z,20.73
2017-12-22T05:30:42.462Z,20.43
2017-12-22T05:33:12.000Z,20.20
2017-12-22T05:35:40.880Z,20.27
2017-12-22T05:40:44.966Z,20.10
2017-12-22T05:43:13.803Z,18.77
2017-12-22T05:45:42.643Z,19.87
2017-12-22T05:48:12.027Z,18.23
2017-12-22T05:50:40.868Z,18.07
2017-12-22T05:53:09.696Z,18.90
2017-12-22T05:55:38.562Z,19.63
2017-12-22T05:58:07.432Z,19.73
2017-12-22T06:00:36.278Z,19.20
2017-12-22T06:03:05.136Z,20.90
2017-12-22T06:05:33.994Z,22.23
2017-12-22T06:08:03.103Z,23.00
2017-12-22T06:10:32.776Z,22.73
2017-12-22T06:13:01.657Z,21.70
2017-12-22T06:15:30.518Z,21.27
2017-12-22T06:17:59.388Z,22.10
2017-12-22T06:20:28.228Z,21.63
2017-12-22T06:22:57.893Z,20.67
2017-12-22T06:25:26.760Z,19.63
2017-12-22T06:27:55.634Z,19.83
2017-12-22T06:30:24.508Z,20.67
2017-12-22T06:32:53.361Z,20.17
2017-12-22T06:35:22.242Z,21.43
2017-12-22T06:37:51.094Z,18.47
2017-12-22T06:40:19.990Z,21.70
2017-12-22T06:42:48.853Z,22.73
2017-12-22T06:45:17.966Z,22.50
2017-12-22T06:47:46.830Z,22.80
2017-12-22T06:50:15.707Z,21.47
2017-12-22T06:52:44.544Z,21.90
2017-12-22T06:55:13.452Z,22.87
2017-12-22T06:57:42.332Z,29.07
2017-12-22T07:00:11.170Z,23.03
2017-12-22T07:02:40.079Z,23.23
2017-12-22T07:05:08.922Z,23.47
2017-12-22T07:07:37.784Z,23.03
2017-12-22T07:10:06.664Z,23.53
2017-12-22T07:12:35.524Z,22.77
2017-12-22T07:15:04.368Z,23.03
2017-12-22T07:17:33.254Z,23.70
2017-12-22T07:20:02.142Z,22.67
2017-12-22T07:22:30.999Z,22.97
2017-12-22T07:24:59.851Z,23.93
2017-12-22T07:27:28.694Z,21.23
2017-12-22T07:29:57.590Z,22.00
2017-12-22T07:32:27.345Z,21.07
2017-12-22T07:34:56.218Z,20.20
2017-12-22T07:37:25.742Z,22.33
2017-12-22T07:39:55.132Z,20.80
2017-12-22T07:42:24.002Z,20.60
2017-12-22T07:44:54.324Z,19.53
2017-12-22T07:47:23.184Z,17.93
2017-12-22T07:49:52.128Z,18.00
2017-12-22T07:52:21.469Z,17.83
2017-12-22T07:54:50.353Z,17.13
2017-12-22T07:57:19.233Z,17.70
2017-12-22T07:59:48.118Z,17.80
2017-12-22T08:02:17.011Z,17.10
2017-12-22T08:04:46.514Z,16.63
2017-12-22T08:07:15.720Z,17.33
2017-12-22T08:09:45.320Z,18.10
2017-12-22T08:12:14.174Z,17.73
2017-12-22T08:14:43.090Z,18.60
2017-12-22T08:17:11.957Z,17.57
2017-12-22T08:19:40.800Z,19.60
2017-12-22T08:22:09.663Z,19.10
2017-12-22T08:24:39.314Z,18.40
2017-12-22T08:27:08.850Z,19.37
2017-12-22T08:29:37.683Z,19.70
2017-12-22T08:32:06.538Z,20.87
2017-12-22T08:34:36.291Z,19.87
2017-12-22T08:37:05.141Z,19.47
2017-12-22T08:39:34.028Z,19.97
2017-12-22T08:42:03.555Z,19.93
2017-12-22T08:44:33.122Z,21.03
2017-12-22T08:47:02.027Z,19.93
2017-12-22T08:49:30.873Z,20.70
2017-12-22T08:52:00.326Z,20.83
2017-12-22T08:54:29.201Z,19.40
2017-12-22T08:56:58.060Z,20.00
2017-12-22T08:59:26.921Z,19.87
2017-12-22T09:01:55.780Z,18.47
2017-12-22T09:04:24.623Z,18.57
2017-12-22T09:06:53.458Z,18.43
2017-12-22T09:09:22.368Z,18.33
2017-12-22T09:11:51.209Z,17.60
2017-12-22T09:14:20.076Z,17.47
2017-12-22T09:16:48.929Z,16.87
2017-12-22T09:19:18.093Z,15.93
2017-12-22T09:21:46.942Z,15.47
2017-12-22T09:24:15.830Z,15.20
2017-12-22T09:26:44.687Z,15.63
2017-12-22T09:29:13.592Z,15.20
2017-12-22T09:31:42.488Z,13.90
2017-12-22T09:34:11.329Z,14.07
2017-12-22T09:36:40.186Z,13.93
2017-12-22T09:39:09.088Z,13.63
2017-12-22T09:41:38.245Z,13.87
2017-12-22T09:44:07.113Z,13.17
2017-12-22T09:46:35.973Z,13.93
2017-12-22T09:49:04.819Z,11.40
2017-12-22T09:51:34.592Z,11.53
2017-12-22T09:54:04.128Z,11.60
2017-12-22T09:56:32.978Z,10.30
2017-12-22T09:59:01.819Z,11.20
2017-12-22T10:01:30.689Z,10.23
2017-12-22T10:03:59.552Z,10.03
2017-12-22T10:06:28.417Z,9.97
2017-12-22T10:08:57.295Z,10.87
2017-12-22T10:11:26.167Z,10.13
2017-12-22T10:13:55.011Z,10.67
2017-12-22T10:16:23.898Z,10.10
2017-12-22T10:18:52.734Z,9.70
2017-12-22T10:21:21.584Z,10.50
2017-12-22T10:23:50.465Z,11.50
2017-12-22T10:26:19.307Z,11.57
2017-12-22T10:28:48.156Z,10.97
2017-12-22T10:31:17.026Z,11.63
2017-12-22T10:33:45.909Z,11.43
2017-12-22T10:36:14.765Z,12.07
2017-12-22T10:38:43.627Z,12.83
2017-12-22T10:41:12.512Z,11.97
2017-12-22T10:43:41.435Z,13.03
2017-12-22T10:46:10.311Z,13.53
2017-12-22T10:48:40.970Z,13.60
2017-12-22T10:51:10.624Z,15.00
2017-12-22T10:53:39.693Z,15.03
2017-12-22T10:56:09.242Z,14.37
2017-12-22T10:58:40.896Z,15.83
2017-12-22T11:01:09.899Z,16.13
2017-12-22T11:03:38.764Z,16.07
2017-12-22T11:06:07.609Z,16.67
2017-12-22T11:08:36.855Z,16.80
2017-12-22T11:11:05.912Z,16.47
2017-12-22T11:13:34.814Z,17.43
2017-12-22T11:16:03.757Z,17.20
2017-12-22T11:18:32.655Z,17.50
2017-12-22T11:21:01.547Z,18.40
2017-12-22T11:23:30.418Z,18.33
2017-12-22T11:25:59.320Z,19.27
2017-12-22T11:28:28.389Z,17.73
2017-12-22T11:30:57.696Z,19.17
2017-12-22T11:33:26.631Z,20.00
2017-12-22T11:35:55.476Z,20.57
2017-12-22T11:38:24.317Z,21.50
2017-12-22T11:40:54.253Z,20.93
2017-12-22T11:43:23.120Z,21.90
2017-12-22T11:45:51.970Z,21.97
2017-12-22T11:48:21.021Z,22.50
2017-12-22T11:50:50.023Z,19.83
2017-12-22T11:53:18.854Z,21.97
2017-12-22T11:55:47.728Z,21.80
2017-12-22T11:58:16.586Z,22.13
2017-12-22T12:00:45.453Z,20.17
2017-12-22T12:03:14.964Z,20.87
2017-12-22T12:05:44.059Z,21.73
2017-12-22T12:08:12.908Z,20.97
2017-12-22T12:10:41.899Z,20.90
2017-12-22T12:13:11.545Z,21.33
2017-12-22T12:15:40.415Z,20.80
2017-12-22T12:18:09.268Z,21.40
2017-12-22T12:20:38.149Z,20.80
2017-12-22T12:23:07.704Z,22.13
2017-12-22T12:25:36.636Z,20.37
2017-12-22T12:28:05.510Z,22.47
2017-12-22T12:30:34.958Z,22.40
2017-12-22T12:33:03.852Z,24.33
2017-12-22T12:35:32.710Z,22.67
2017-12-22T12:38:01.615Z,24.00
2017-12-22T12:40:30.518Z,21.33
2017-12-22T12:42:59.385Z,23.30
2017-12-22T12:45:28.242Z,22.80
2017-12-22T12:47:57.241Z,25.03
2017-12-22T12:50:26.091Z,25.83
2017-12-22T12:52:54.940Z,25.60
2017-12-22T12:55:23.818Z,26.77
2017-12-22T12:57:52.674Z,25.87
2017-12-22T13:00:21.572Z,25.50
2017-12-22T13:02:50.491Z,26.17
2017-12-22T13:05:19.498Z,25.00
2017-12-22T13:07:48.343Z,25.23
2017-12-22T13:10:17.555Z,25.67
2017-12-22T13:12:46.407Z,25.97
2017-12-22T13:15:15.262Z,26.37
2017-12-22T13:17:44.145Z,26.70
2017-12-22T13:20:12.990Z,26.43
2017-12-22T13:22:41.859Z,27.20
2017-12-22T13:25:10.721Z,25.90
2017-12-22T13:27:39.561Z,27.63
2017-12-22T13:30:08.441Z,26.53
2017-12-22T13:32:37.335Z,27.73
2017-12-22T13:35:06.207Z,25.70
2017-12-22T13:37:35.051Z,27.70
2017-12-22T13:40:03.932Z,25.37
2017-12-22T13:42:32.792Z,24.47
2017-12-22T13:45:01.641Z,25.73
2017-12-22T13:47:30.525Z,25.33
2017-12-22T13:49:59.367Z,24.97
2017-12-22T13:52:28.241Z,24.47
2017-12-22T13:54:57.128Z,23.90
2017-12-22T13:57:25.973Z,24.30
2017-12-22T13:59:54.807Z,23.73
2017-12-22T14:02:23.720Z,26.30
2017-12-22T14:04:53.404Z,23.83
2017-12-22T14:07:22.626Z,23.97
2017-12-22T14:09:51.511Z,24.60
2017-12-22T14:12:20.356Z,24.63
2017-12-22T14:14:49.189Z,24.47
2017-12-22T14:17:18.161Z,22.80
2017-12-22T14:19:46.997Z,21.50
2017-12-22T14:22:15.851Z,20.37
2017-12-22T14:24:46.869Z,19.37
2017-12-22T14:27:16.637Z,19.47
2017-12-22T14:29:45.531Z,17.67
2017-12-22T14:32:14.377Z,17.30
2017-12-22T14:34:43.212Z,16.77
2017-12-22T14:37:12.083Z,17.83
2017-12-22T14:39:40.963Z,19.43
2017-12-22T14:42:10.194Z,20.53
2017-12-22T14:44:39.071Z,21.53
2017-12-22T14:47:07.936Z,21.20
2017-12-22T14:49:36.804Z,20.27
2017-12-22T14:52:05.712Z,24.57
2017-12-22T14:54:35.318Z,24.00
2017-12-22T14:57:04.187Z,27.87
2017-12-22T14:59:33.064Z,27.77
2017-12-22T15:02:01.903Z,29.03
2017-12-22T15:04:30.753Z,29.07
2017-12-22T15:06:59.685Z,27.50
2017-12-22T15:09:28.524Z,27.83
2017-12-22T15:11:57.492Z,25.73
2017-12-22T15:14:26.870Z,27.17
2017-12-22T15:16:55.727Z,27.60
2017-12-22T15:19:24.590Z,26.10
2017-12-22T15:21:53.466Z,25.97
2017-12-22T15:24:23.384Z,25.83
2017-12-22T15:26:52.228Z,24.80
2017-12-22T15:29:21.089Z,23.97
2017-12-22T15:31:49.961Z,23.77
2017-12-22T15:34:18.810Z,23.03
2017-12-22T15:36:47.742Z,25.67
2017-12-22T15:39:18.058Z,26.67
2017-12-22T15:41:46.925Z,28.20
2017-12-22T15:44:16.284Z,27.47
2017-12-22T15:46:45.141Z,25.43
2017-12-22T15:49:14.010Z,26.00
2017-12-22T15:51:42.866Z,25.97
2017-12-22T15:54:12.812Z,25.83
2017-12-22T15:56:41.734Z,25.87
2017-12-22T15:59:11.252Z,24.03
2017-12-22T16:01:41.253Z,25.83
2017-12-22T16:04:10.159Z,26.27
2017-12-22T16:06:39.005Z,25.83
2017-12-22T16:09:08.546Z,25.10
2017-12-22T16:11:37.472Z,27.30
2017-12-22T16:14:07.176Z,27.40
2017-12-22T16:16:36.031Z,27.47
2017-12-22T16:19:04.921Z,28.57
2017-12-22T16:21:33.769Z,31.00
2017-12-22T16:24:02.646Z,29.13
2017-12-22T16:26:31.536Z,27.87
2017-12-22T16:29:00.386Z,29.87
2017-12-22T16:31:29.261Z,28.87
2017-12-22T16:33:58.169Z,30.53
2017-12-22T16:36:27.404Z,28.27
2017-12-22T16:38:56.270Z,28.43
2017-12-22T16:41:25.719Z,29.87
2017-12-22T16:43:55.523Z,26.87
2017-12-22T16:46:24.378Z,26.87
2017-12-22T16:48:53.246Z,30.80
2017-12-22T16:51:22.213Z,27.67
2017-12-22T16:53:51.378Z,28.33
2017-12-22T16:56:21.209Z,28.23
2017-12-22T16:58:50.120Z,26.70
2017-12-22T17:01:18.969Z,26.37
2017-12-22T17:03:47.841Z,38.17
2017-12-22T17:06:16.720Z,26.53
2017-12-22T17:08:45.577Z,26.60
2017-12-22T17:11:14.462Z,26.03
2017-12-22T17:13:43.647Z,23.73
2017-12-22T17:16:12.533Z,24.63
2017-12-22T17:18:41.415Z,25.73
2017-12-22T17:21:10.281Z,24.30
2017-12-22T17:23:39.127Z,25.70
2017-12-22T17:26:07.994Z,24.63
2017-12-22T17:28:38.279Z,25.50
2017-12-22T17:31:08.047Z,25.13
2017-12-22T17:33:37.285Z,25.13
2017-12-22T17:36:06.780Z,26.20
2017-12-22T17:38:35.625Z,23.67
2017-12-22T17:41:04.606Z,25.53
2017-12-22T17:43:33.438Z,26.03
2017-12-22T17:46:02.292Z,26.40
2017-12-22T17:48:31.342Z,27.80
2017-12-22T17:51:00.217Z,26.60
2017-12-22T17:53:29.062Z,27.47
2017-12-22T17:55:57.929Z,27.10
2017-12-22T17:58:26.789Z,29.43
2017-12-22T18:00:55.917Z,29.10
2017-12-22T18:03:24.805Z,30.10
2017-12-22T18:05:53.645Z,29.97
2017-12-22T18:08:23.337Z,31.13
2017-12-22T18:10:52.641Z,33.97
2017-12-22T18:13:22.230Z,29.83
2017-12-22T18:15:51.069Z,29.20
2017-12-22T18:18:20.836Z,31.17
2017-12-22T18:20:49.690Z,34.40
2017-12-22T18:23:18.552Z,31.23
2017-12-22T18:25:48.129Z,28.47
2017-12-22T18:28:17.051Z,29.07
2017-12-22T18:30:46.372Z,30.33
2017-12-22T18:33:15.479Z,30.07
2017-12-22T18:35:44.329Z,30.20
2017-12-22T18:38:13.560Z,28.33
2017-12-22T18:40:42.448Z,27.77
2017-12-22T18:43:11.516Z,28.53
2017-12-22T18:45:40.371Z,29.93
2017-12-22T18:48:09.951Z,30.13
2017-12-22T18:50:38.849Z,28.37
2017-12-22T18:53:07.773Z,28.27
2017-12-22T18:55:36.649Z,26.47
2017-12-22T18:58:05.508Z,27.87
2017-12-22T19:00:34.360Z,25.37
2017-12-22T19:03:03.253Z,26.60
2017-12-22T19:05:32.097Z,25.90
2017-12-22T19:08:00.940Z,25.83
2017-12-22T19:10:30.109Z,26.57
2017-12-22T19:12:58.951Z,25.03
2017-12-22T19:15:27.802Z,25.87
2017-12-22T19:17:56.722Z,26.13
2017-12-22T19:20:25.572Z,26.17
2017-12-22T19:22:54.418Z,26.13
2017-12-22T19:25:23.311Z,27.47
2017-12-22T19:27:52.147Z,25.73
2017-12-22T19:30:21.038Z,27.47
2017-12-22T19:32:49.897Z,28.10
2017-12-22T19:35:19.501Z,24.90
2017-12-22T19:37:48.371Z,28.53
2017-12-22T19:40:17.598Z,28.07
2017-12-22T19:42:46.436Z,25.20
2017-12-22T19:45:15.279Z,26.43
2017-12-22T19:47:44.152Z,27.57
2017-12-22T19:50:13.640Z,24.60
2017-12-22T19:52:42.486Z,24.10
2017-12-22T19:55:11.360Z,22.50
2017-12-22T19:57:40.230Z,21.70
2017-12-22T20:00:09.078Z,22.53
2017-12-22T20:02:37.986Z,19.80
2017-12-22T20:05:06.868Z,20.77
2017-12-22T20:07:35.712Z,20.37
2017-12-22T20:10:04.635Z,19.33
2017-12-22T20:12:33.501Z,18.73
2017-12-22T20:15:02.362Z,17.50
2017-12-22T20:17:31.230Z,17.33
2017-12-22T20:20:00.081Z,16.43
2017-12-22T20:22:29.392Z,17.47
2017-12-22T20:24:58.497Z,17.30
2017-12-22T20:27:27.693Z,17.60
2017-12-22T20:29:58.278Z,16.10
2017-12-22T20:32:28.599Z,17.00
2017-12-22T20:34:58.455Z,18.40
2017-12-22T20:37:27.668Z,19.33
2017-12-22T20:39:57.176Z,17.70
2017-12-22T20:42:26.022Z,16.93
2017-12-22T20:44:54.872Z,17.53
2017-12-22T20:47:23.781Z,17.83
2017-12-22T20:49:52.632Z,17.47
2017-12-22T20:52:21.483Z,17.83
2017-12-22T20:54:50.443Z,18.07
2017-12-22T20:57:19.937Z,20.90
2017-12-22T20:59:49.310Z,20.43
2017-12-22T21:02:18.908Z,17.97
2017-12-22T21:04:48.994Z,16.73
2017-12-22T21:07:18.049Z,16.27
2017-12-22T21:09:46.998Z,33.20
2017-12-22T21:12:15.874Z,20.00
2017-12-22T21:14:44.732Z,38.80
2017-12-22T21:17:13.582Z,21.80
2017-12-22T21:19:42.428Z,18.03
2017-12-22T21:22:11.927Z,15.50
2017-12-22T21:24:40.990Z,16.00
2017-12-22T21:27:10.527Z,16.00
2017-12-22T21:29:39.402Z,16.30
2017-12-22T21:32:09.792Z,16.53
2017-12-22T21:34:39.414Z,23.00
2017-12-22T21:37:08.279Z,24.60
2017-12-22T21:39:38.096Z,19.83
2017-12-22T21:42:07.311Z,20.10
2017-12-22T21:44:36.244Z,20.43
2017-12-22T21:47:05.092Z,20.00
2017-12-22T21:49:33.961Z,19.37
2017-12-22T21:52:02.857Z,19.33
2017-12-22T21:54:31.722Z,18.63
2017-12-22T21:57:00.604Z,19.73
2017-12-22T21:59:30.255Z,17.97
2017-12-22T22:01:59.097Z,16.53
2017-12-22T22:04:28.006Z,16.97
2017-12-22T22:06:56.891Z,16.63
2017-12-22T22:09:25.743Z,17.03
2017-12-22T22:11:55.063Z,18.47
2017-12-22T22:14:24.582Z,18.27
2017-12-22T22:16:53.471Z,17.93
2017-12-22T22:19:22.396Z,18.37
2017-12-22T22:21:51.602Z,16.90
2017-12-22T22:24:20.488Z,16.27
2017-12-22T22:26:50.140Z,15.50
2017-12-22T22:29:18.987Z,17.17
2017-12-22T22:31:47.855Z,17.10
2017-12-22T22:34:16.712Z,19.17
2017-12-22T22:36:45.593Z,19.63
2017-12-22T22:39:14.436Z,19.20
2017-12-22T22:41:43.435Z,18.70
2017-12-22T22:44:12.282Z,18.97
2017-12-22T22:46:41.119Z,19.27
2017-12-22T22:49:10.007Z,19.53
2017-12-22T22:51:38.857Z,19.50
2017-12-22T22:54:08.411Z,19.80
2017-12-22T22:56:37.319Z,19.13
2017-12-22T22:59:06.215Z,19.17
2017-12-22T23:01:35.097Z,16.77
2017-12-22T23:04:04.961Z,18.13
2017-12-22T23:06:33.860Z,17.47
2017-12-22T23:09:02.726Z,18.10
2017-12-22T23:11:31.962Z,19.10
2017-12-22T23:14:00.940Z,19.40
2017-12-22T23:16:30.706Z,19.13
2017-12-22T23:18:59.597Z,20.37
2017-12-22T23:21:28.442Z,20.57
2017-12-22T23:23:57.285Z,21.17
2017-12-22T23:26:26.147Z,21.00
2017-12-22T23:28:55.721Z,22.17
2017-12-22T23:31:24.587Z,22.33
2017-12-22T23:33:53.454Z,23.23
2017-12-22T23:36:22.294Z,23.13
2017-12-22T23:38:51.139Z,23.57
2017-12-22T23:41:20.012Z,22.50
2017-12-22T23:43:48.909Z,24.33
2017-12-22T23:46:19.192Z,24.10
2017-12-22T23:48:48.074Z,24.47
2017-12-22T23:51:17.857Z,25.93
2017-12-22T23:53:46.911Z,25.47
2017-12-22T23:56:15.841Z,25.43
2017-12-22T23:58:44.735Z,25.97
